sensor_id;sensor_type;location;lat;lon;timestamp;temperature;humidity
22337;DHT22;14992;50.844;4.418;2022-07-24T00:00:00;22.30;99.90
22337;DHT22;14992;50.844;4.418;2022-07-24T00:02:38;22.20;99.90
22337;DHT22;14992;50.844;4.418;2022-07-24T00:05:07;22.20;99.90
22337;DHT22;14992;50.844;4.418;2022-07-24T00:07:36;22.40;99.90
22337;DHT22;14992;50.844;4.418;2022-07-24T00:10:06;22.40;99.90
22337;DHT22;14992;50.844;4.418;2022-07-24T00:12:35;22.30;99.90
22337;DHT22;14992;50.844;4.418;2022-07-24T00:15:05;22.20;99.90
22337;DHT22;14992;50.844;4.418;2022-07-24T00:17:34;22.10;99.90
22337;DHT22;14992;50.844;4.418;2022-07-24T00:20:03;22.30;99.90
22337;DHT22;14992;50.844;4.418;2022-07-24T00:22:32;22.20;99.90
22337;DHT22;14992;50.844;4.418;2022-07-24T00:25:01;22.20;99.90
22337;DHT22;14992;50.844;4.418;2022-07-24T00:27:29;22.00;99.90
22337;DHT22;14992;50.844;4.418;2022-07-24T00:29:57;22.00;99.90
22337;DHT22;14992;50.844;4.418;2022-07-24T00:32:27;22.00;99.90
22337;DHT22;14992;50.844;4.418;2022-07-24T00:34:55;21.90;99.90
22337;DHT22;14992;50.844;4.418;2022-07-24T00:37:24;21.90;99.90
22337;DHT22;14992;50.844;4.418;2022-07-24T00:39:52;22.00;99.90
22337;DHT22;14992;50.844;4.418;2022-07-24T00:42:20;22.10;99.90
22337;DHT22;14992;50.844;4.418;2022-07-24T00:44:49;22.00;99.90
22337;DHT22;14992;50.844;4.418;2022-07-24T00:47:17;22.00;99.90
22337;DHT22;14992;50.844;4.418;2022-07-24T00:49:49;22.00;99.90
22337;DHT22;14992;50.844;4.418;2022-07-24T00:52:17;22.10;99.90
22337;DHT22;14992;50.844;4.418;2022-07-24T00:54:46;22.10;99.90
22337;DHT22;14992;50.844;4.418;2022-07-24T00:57:14;22.00;99.90
22337;DHT22;14992;50.844;4.418;2022-07-24T00:59:42;21.90;99.90
22337;DHT22;14992;50.844;4.418;2022-07-24T01:02:11;22.00;99.90
22337;DHT22;14992;50.844;4.418;2022-07-24T01:04:39;22.10;99.90
22337;DHT22;14992;50.844;4.418;2022-07-24T01:07:16;22.30;99.90
22337;DHT22;14992;50.844;4.418;2022-07-24T01:09:45;22.20;99.90
22337;DHT22;14992;50.844;4.418;2022-07-24T01:12:14;22.20;99.90
22337;DHT22;14992;50.844;4.418;2022-07-24T01:14:43;22.20;99.90
22337;DHT22;14992;50.844;4.418;2022-07-24T01:17:11;22.10;99.90
22337;DHT22;14992;50.844;4.418;2022-07-24T01:19:39;22.10;99.90
22337;DHT22;14992;50.844;4.418;2022-07-24T01:22:09;22.00;99.90
22337;DHT22;14992;50.844;4.418;2022-07-24T01:24:38;22.10;99.90
22337;DHT22;14992;50.844;4.418;2022-07-24T01:27:06;22.10;99.90
22337;DHT22;14992;50.844;4.418;2022-07-24T01:29:36;22.20;99.90
22337;DHT22;14992;50.844;4.418;2022-07-24T01:32:05;22.10;99.90
22337;DHT22;14992;50.844;4.418;2022-07-24T01:34:33;22.30;99.90
22337;DHT22;14992;50.844;4.418;2022-07-24T01:37:02;22.20;99.90
22337;DHT22;14992;50.844;4.418;2022-07-24T01:39:32;22.20;99.90
22337;DHT22;14992;50.844;4.418;2022-07-24T01:42:00;22.00;99.90
22337;DHT22;14992;50.844;4.418;2022-07-24T01:44:29;21.60;99.90
22337;DHT22;14992;50.844;4.418;2022-07-24T01:46:57;21.60;99.90
22337;DHT22;14992;50.844;4.418;2022-07-24T01:49:25;21.70;99.90
22337;DHT22;14992;50.844;4.418;2022-07-24T01:51:54;21.80;99.90
22337;DHT22;14992;50.844;4.418;2022-07-24T01:54:22;21.70;99.90
22337;DHT22;14992;50.844;4.418;2022-07-24T01:56:51;21.70;99.90
22337;DHT22;14992;50.844;4.418;2022-07-24T01:59:20;21.60;99.90
22337;DHT22;14992;50.844;4.418;2022-07-24T02:01:52;21.50;99.90
22337;DHT22;14992;50.844;4.418;2022-07-24T02:04:20;21.50;99.90
22337;DHT22;14992;50.844;4.418;2022-07-24T02:06:49;21.20;99.90
22337;DHT22;14992;50.844;4.418;2022-07-24T02:09:17;21.10;99.90
22337;DHT22;14992;50.844;4.418;2022-07-24T02:11:45;21.20;99.90
22337;DHT22;14992;50.844;4.418;2022-07-24T02:14:15;21.30;99.90
22337;DHT22;14992;50.844;4.418;2022-07-24T02:16:44;21.40;99.90
22337;DHT22;14992;50.844;4.418;2022-07-24T02:19:13;21.40;99.90
22337;DHT22;14992;50.844;4.418;2022-07-24T02:21:41;21.40;99.90
22337;DHT22;14992;50.844;4.418;2022-07-24T02:24:09;21.30;99.90
22337;DHT22;14992;50.844;4.418;2022-07-24T02:26:37;21.20;99.90
22337;DHT22;14992;50.844;4.418;2022-07-24T02:29:06;21.40;99.90
22337;DHT22;14992;50.844;4.418;2022-07-24T02:31:36;21.50;99.90
22337;DHT22;14992;50.844;4.418;2022-07-24T02:34:04;21.40;99.90
22337;DHT22;14992;50.844;4.418;2022-07-24T02:36:33;21.10;99.90
22337;DHT22;14992;50.844;4.418;2022-07-24T02:39:02;21.00;99.90
22337;DHT22;14992;50.844;4.418;2022-07-24T02:41:58;20.90;99.90
22337;DHT22;14992;50.844;4.418;2022-07-24T02:44:40;20.60;99.90
22337;DHT22;14992;50.844;4.418;2022-07-24T02:47:47;20.80;99.90
22337;DHT22;14992;50.844;4.418;2022-07-24T02:50:31;20.60;99.90
22337;DHT22;14992;50.844;4.418;2022-07-24T02:53:27;20.50;99.90
22337;DHT22;14992;50.844;4.418;2022-07-24T02:56:08;20.50;99.90
22337;DHT22;14992;50.844;4.418;2022-07-24T02:58:57;20.80;99.90
22337;DHT22;14992;50.844;4.418;2022-07-24T03:01:39;21.00;99.90
22337;DHT22;14992;50.844;4.418;2022-07-24T03:04:28;20.90;99.90
22337;DHT22;14992;50.844;4.418;2022-07-24T03:07:24;20.80;99.90
22337;DHT22;14992;50.844;4.418;2022-07-24T03:10:08;21.00;99.90
22337;DHT22;14992;50.844;4.418;2022-07-24T03:13:03;21.10;99.90
22337;DHT22;14992;50.844;4.418;2022-07-24T03:15:45;21.10;99.90
22337;DHT22;14992;50.844;4.418;2022-07-24T03:18:34;21.10;99.90
22337;DHT22;14992;50.844;4.418;2022-07-24T03:21:21;20.90;99.90
22337;DHT22;14992;50.844;4.418;2022-07-24T03:24:27;20.90;99.90
22337;DHT22;14992;50.844;4.418;2022-07-24T03:27:22;20.80;99.90
22337;DHT22;14992;50.844;4.418;2022-07-24T03:30:05;20.50;99.90
22337;DHT22;14992;50.844;4.418;2022-07-24T03:33:00;20.30;99.90
22337;DHT22;14992;50.844;4.418;2022-07-24T03:35:55;20.40;99.90
22337;DHT22;14992;50.844;4.418;2022-07-24T03:38:38;20.20;99.90
22337;DHT22;14992;50.844;4.418;2022-07-24T03:41:33;20.20;99.90
22337;DHT22;14992;50.844;4.418;2022-07-24T03:44:14;20.30;99.90
22337;DHT22;14992;50.844;4.418;2022-07-24T03:47:10;20.50;99.90
22337;DHT22;14992;50.844;4.418;2022-07-24T03:49:51;20.60;99.90
22337;DHT22;14992;50.844;4.418;2022-07-24T03:52:47;20.50;99.90
22337;DHT22;14992;50.844;4.418;2022-07-24T03:55:31;20.50;99.90
22337;DHT22;14992;50.844;4.418;2022-07-24T03:58:26;20.60;99.90
22337;DHT22;14992;50.844;4.418;2022-07-24T04:01:12;20.40;99.90
22337;DHT22;14992;50.844;4.418;2022-07-24T04:04:01;20.50;99.90
22337;DHT22;14992;50.844;4.418;2022-07-24T04:06:43;20.60;99.90
22337;DHT22;14992;50.844;4.418;2022-07-24T04:09:32;20.50;99.90
22337;DHT22;14992;50.844;4.418;2022-07-24T04:12:28;20.50;99.90
22337;DHT22;14992;50.844;4.418;2022-07-24T04:15:10;20.30;99.90
22337;DHT22;14992;50.844;4.418;2022-07-24T04:18:06;20.20;99.90
22337;DHT22;14992;50.844;4.418;2022-07-24T04:20:47;20.20;99.90
22337;DHT22;14992;50.844;4.418;2022-07-24T04:23:36;20.00;99.90
22337;DHT22;14992;50.844;4.418;2022-07-24T04:26:24;20.20;99.90
22337;DHT22;14992;50.844;4.418;2022-07-24T04:29:14;20.30;99.90
22337;DHT22;14992;50.844;4.418;2022-07-24T04:32:11;20.50;99.90
22337;DHT22;14992;50.844;4.418;2022-07-24T04:34:52;20.50;99.90
22337;DHT22;14992;50.844;4.418;2022-07-24T04:37:48;20.40;99.90
22337;DHT22;14992;50.844;4.418;2022-07-24T04:40:29;20.60;99.90
22337;DHT22;14992;50.844;4.418;2022-07-24T04:43:25;20.40;99.90
22337;DHT22;14992;50.844;4.418;2022-07-24T04:46:08;20.20;99.90
22337;DHT22;14992;50.844;4.418;2022-07-24T04:48:56;20.40;99.90
22337;DHT22;14992;50.844;4.418;2022-07-24T04:51:38;20.50;99.90
22337;DHT22;14992;50.844;4.418;2022-07-24T04:54:27;20.30;99.90
22337;DHT22;14992;50.844;4.418;2022-07-24T04:57:08;20.40;99.90
22337;DHT22;14992;50.844;4.418;2022-07-24T04:59:57;20.40;99.90
22337;DHT22;14992;50.844;4.418;2022-07-24T05:02:53;20.20;99.90
22337;DHT22;14992;50.844;4.418;2022-07-24T05:05:35;20.40;99.90
22337;DHT22;14992;50.844;4.418;2022-07-24T05:08:23;20.60;99.90
22337;DHT22;14992;50.844;4.418;2022-07-24T05:11:04;20.40;99.90
22337;DHT22;14992;50.844;4.418;2022-07-24T05:13:53;20.30;99.90
22337;DHT22;14992;50.844;4.418;2022-07-24T05:16:41;20.30;99.90
22337;DHT22;14992;50.844;4.418;2022-07-24T05:19:24;20.10;99.90
22337;DHT22;14992;50.844;4.418;2022-07-24T05:22:12;20.20;99.90
22337;DHT22;14992;50.844;4.418;2022-07-24T05:24:53;20.30;99.90
22337;DHT22;14992;50.844;4.418;2022-07-24T05:27:42;20.00;99.90
22337;DHT22;14992;50.844;4.418;2022-07-24T05:30:30;20.40;99.90
22337;DHT22;14992;50.844;4.418;2022-07-24T05:33:25;20.50;99.90
22337;DHT22;14992;50.844;4.418;2022-07-24T05:36:08;20.60;99.90
22337;DHT22;14992;50.844;4.418;2022-07-24T05:38:57;20.40;99.90
22337;DHT22;14992;50.844;4.418;2022-07-24T05:41:38;20.60;99.90
22337;DHT22;14992;50.844;4.418;2022-07-24T05:44:27;20.90;99.90
22337;DHT22;14992;50.844;4.418;2022-07-24T05:47:08;20.70;99.90
22337;DHT22;14992;50.844;4.418;2022-07-24T05:49:57;20.90;99.90
22337;DHT22;14992;50.844;4.418;2022-07-24T05:52:41;20.90;99.90
22337;DHT22;14992;50.844;4.418;2022-07-24T05:55:29;20.90;99.90
22337;DHT22;14992;50.844;4.418;2022-07-24T05:58:24;20.80;99.90
22337;DHT22;14992;50.844;4.418;2022-07-24T06:01:05;20.80;99.90
22337;DHT22;14992;50.844;4.418;2022-07-24T06:03:55;21.00;99.90
22337;DHT22;14992;50.844;4.418;2022-07-24T06:06:36;21.30;99.90
22337;DHT22;14992;50.844;4.418;2022-07-24T06:09:26;21.40;99.90
22337;DHT22;14992;50.844;4.418;2022-07-24T06:12:09;21.50;99.90
22337;DHT22;14992;50.844;4.418;2022-07-24T06:14:59;20.90;99.90
22337;DHT22;14992;50.844;4.418;2022-07-24T06:17:40;21.00;99.90
22337;DHT22;14992;50.844;4.418;2022-07-24T06:20:29;21.30;99.90
22337;DHT22;14992;50.844;4.418;2022-07-24T06:23:10;21.70;99.90
22337;DHT22;14992;50.844;4.418;2022-07-24T06:26:06;21.70;99.90
22337;DHT22;14992;50.844;4.418;2022-07-24T06:28:48;21.80;99.90
22337;DHT22;14992;50.844;4.418;2022-07-24T06:31:36;21.50;99.90
22337;DHT22;14992;50.844;4.418;2022-07-24T06:34:31;21.80;99.90
22337;DHT22;14992;50.844;4.418;2022-07-24T06:37:12;22.10;99.90
22337;DHT22;14992;50.844;4.418;2022-07-24T06:40:01;22.10;99.90
22337;DHT22;14992;50.844;4.418;2022-07-24T06:42:44;22.20;99.90
22337;DHT22;14992;50.844;4.418;2022-07-24T06:45:33;22.10;99.90
22337;DHT22;14992;50.844;4.418;2022-07-24T06:48:23;22.00;99.90
22337;DHT22;14992;50.844;4.418;2022-07-24T06:51:18;22.20;99.90
22337;DHT22;14992;50.844;4.418;2022-07-24T06:53:59;22.30;99.90
22337;DHT22;14992;50.844;4.418;2022-07-24T06:56:48;22.30;99.90
22337;DHT22;14992;50.844;4.418;2022-07-24T06:59:31;22.40;99.90
22337;DHT22;14992;50.844;4.418;2022-07-24T07:02:19;22.50;99.90
22337;DHT22;14992;50.844;4.418;2022-07-24T07:05:01;22.70;99.90
22337;DHT22;14992;50.844;4.418;2022-07-24T07:07:50;22.80;99.90
22337;DHT22;14992;50.844;4.418;2022-07-24T07:10:45;23.00;99.90
22337;DHT22;14992;50.844;4.418;2022-07-24T07:13:27;23.00;99.90
22337;DHT22;14992;50.844;4.418;2022-07-24T07:16:23;23.10;99.90
22337;DHT22;14992;50.844;4.418;2022-07-24T07:19:05;23.10;99.90
22337;DHT22;14992;50.844;4.418;2022-07-24T07:22:01;22.80;99.90
22337;DHT22;14992;50.844;4.418;2022-07-24T07:24:42;22.90;99.90
22337;DHT22;14992;50.844;4.418;2022-07-24T07:27:39;22.70;99.90
22337;DHT22;14992;50.844;4.418;2022-07-24T07:30:20;23.10;99.90
22337;DHT22;14992;50.844;4.418;2022-07-24T07:33:16;23.10;99.90
22337;DHT22;14992;50.844;4.418;2022-07-24T07:36:14;23.20;99.90
22337;DHT22;14992;50.844;4.418;2022-07-24T07:38:55;23.10;99.90
22337;DHT22;14992;50.844;4.418;2022-07-24T07:41:45;23.30;99.90
22337;DHT22;14992;50.844;4.418;2022-07-24T07:44:26;23.50;99.90
22337;DHT22;14992;50.844;4.418;2022-07-24T07:47:15;23.70;99.90
22337;DHT22;14992;50.844;4.418;2022-07-24T07:49:58;23.50;99.90
22337;DHT22;14992;50.844;4.418;2022-07-24T07:52:46;23.30;99.90
22337;DHT22;14992;50.844;4.418;2022-07-24T07:55:27;23.20;99.90
22337;DHT22;14992;50.844;4.418;2022-07-24T07:58:16;23.50;99.90
22337;DHT22;14992;50.844;4.418;2022-07-24T08:01:11;23.50;99.90
22337;DHT22;14992;50.844;4.418;2022-07-24T08:03:55;23.60;99.90
22337;DHT22;14992;50.844;4.418;2022-07-24T08:06:51;23.50;99.90
22337;DHT22;14992;50.844;4.418;2022-07-24T08:09:34;23.80;99.90
22337;DHT22;14992;50.844;4.418;2022-07-24T08:12:24;24.10;99.90
22337;DHT22;14992;50.844;4.418;2022-07-24T08:15:06;24.10;99.90
22337;DHT22;14992;50.844;4.418;2022-07-24T08:17:57;24.10;99.90
22337;DHT22;14992;50.844;4.418;2022-07-24T08:20:53;24.40;99.90
22337;DHT22;14992;50.844;4.418;2022-07-24T08:23:36;24.60;99.90
22337;DHT22;14992;50.844;4.418;2022-07-24T08:26:31;24.50;99.90
22337;DHT22;14992;50.844;4.418;2022-07-24T08:29:12;24.40;99.90
22337;DHT22;14992;50.844;4.418;2022-07-24T08:32:08;24.50;99.90
22337;DHT22;14992;50.844;4.418;2022-07-24T08:35:04;24.80;99.90
22337;DHT22;14992;50.844;4.418;2022-07-24T08:37:45;24.90;99.90
22337;DHT22;14992;50.844;4.418;2022-07-24T08:40:38;24.90;99.90
22337;DHT22;14992;50.844;4.418;2022-07-24T08:43:19;24.80;99.90
22337;DHT22;14992;50.844;4.418;2022-07-24T08:46:15;24.60;99.90
22337;DHT22;14992;50.844;4.418;2022-07-24T08:48:57;24.60;99.90
22337;DHT22;14992;50.844;4.418;2022-07-24T08:51:49;24.80;99.90
22337;DHT22;14992;50.844;4.418;2022-07-24T08:54:32;24.90;99.90
22337;DHT22;14992;50.844;4.418;2022-07-24T08:57:22;25.00;99.90
22337;DHT22;14992;50.844;4.418;2022-07-24T09:00:04;25.20;99.90
22337;DHT22;14992;50.844;4.418;2022-07-24T09:02:53;25.20;99.90
22337;DHT22;14992;50.844;4.418;2022-07-24T09:05:58;25.20;99.90
22337;DHT22;14992;50.844;4.418;2022-07-24T09:08:40;25.40;99.90
22337;DHT22;14992;50.844;4.418;2022-07-24T09:11:36;25.70;99.90
22337;DHT22;14992;50.844;4.418;2022-07-24T09:14:19;25.90;99.90
22337;DHT22;14992;50.844;4.418;2022-07-24T09:17:21;25.90;99.90
22337;DHT22;14992;50.844;4.418;2022-07-24T09:20:16;25.90;99.90
22337;DHT22;14992;50.844;4.418;2022-07-24T09:22:58;25.90;99.90
22337;DHT22;14992;50.844;4.418;2022-07-24T09:25:54;25.80;99.90
22337;DHT22;14992;50.844;4.418;2022-07-24T09:28:50;26.00;99.90
22337;DHT22;14992;50.844;4.418;2022-07-24T09:31:56;26.10;99.90
22337;DHT22;14992;50.844;4.418;2022-07-24T09:34:52;26.00;99.90
22337;DHT22;14992;50.844;4.418;2022-07-24T09:37:53;26.30;99.90
22337;DHT22;14992;50.844;4.418;2022-07-24T09:40:51;26.30;99.90
22337;DHT22;14992;50.844;4.418;2022-07-24T09:43:33;26.30;99.90
22337;DHT22;14992;50.844;4.418;2022-07-24T09:46:30;26.40;99.90
22337;DHT22;14992;50.844;4.418;2022-07-24T09:49:21;26.40;99.90
22337;DHT22;14992;50.844;4.418;2022-07-24T09:52:19;26.20;99.90
22337;DHT22;14992;50.844;4.418;2022-07-24T09:55:01;26.60;99.90
22337;DHT22;14992;50.844;4.418;2022-07-24T09:57:56;26.80;99.90
22337;DHT22;14992;50.844;4.418;2022-07-24T10:00:42;26.80;99.90
22337;DHT22;14992;50.844;4.418;2022-07-24T10:03:33;26.70;99.90
22337;DHT22;14992;50.844;4.418;2022-07-24T10:06:23;26.90;99.90
22337;DHT22;14992;50.844;4.418;2022-07-24T10:09:12;26.70;99.90
22337;DHT22;14992;50.844;4.418;2022-07-24T10:12:12;26.50;99.90
22337;DHT22;14992;50.844;4.418;2022-07-24T10:14:56;26.60;99.90
22337;DHT22;14992;50.844;4.418;2022-07-24T10:18:15;26.70;99.90
22337;DHT22;14992;50.844;4.418;2022-07-24T10:21:07;27.00;99.90
22337;DHT22;14992;50.844;4.418;2022-07-24T10:24:31;27.10;99.90
22337;DHT22;14992;50.844;4.418;2022-07-24T10:27:37;27.30;99.90
22337;DHT22;14992;50.844;4.418;2022-07-24T10:30:35;27.10;99.90
22337;DHT22;14992;50.844;4.418;2022-07-24T10:33:37;26.90;99.90
22337;DHT22;14992;50.844;4.418;2022-07-24T10:36:44;27.30;99.90
22337;DHT22;14992;50.844;4.418;2022-07-24T10:39:39;27.20;99.90
22337;DHT22;14992;50.844;4.418;2022-07-24T10:43:08;27.40;99.90
22337;DHT22;14992;50.844;4.418;2022-07-24T10:46:10;27.20;99.90
22337;DHT22;14992;50.844;4.418;2022-07-24T10:49:03;27.30;99.90
22337;DHT22;14992;50.844;4.418;2022-07-24T10:51:58;27.30;99.90
22337;DHT22;14992;50.844;4.418;2022-07-24T10:54:49;27.20;99.90
22337;DHT22;14992;50.844;4.418;2022-07-24T10:57:55;27.20;99.90
22337;DHT22;14992;50.844;4.418;2022-07-24T11:00:50;27.20;99.90
22337;DHT22;14992;50.844;4.418;2022-07-24T11:03:49;27.40;99.70
22337;DHT22;14992;50.844;4.418;2022-07-24T11:06:47;27.50;99.50
22337;DHT22;14992;50.844;4.418;2022-07-24T11:09:28;27.70;98.90
22337;DHT22;14992;50.844;4.418;2022-07-24T11:12:28;27.60;99.30
22337;DHT22;14992;50.844;4.418;2022-07-24T11:15:12;27.70;99.10
22337;DHT22;14992;50.844;4.418;2022-07-24T11:18:26;27.90;99.20
22337;DHT22;14992;50.844;4.418;2022-07-24T11:21:27;28.30;97.60
22337;DHT22;14992;50.844;4.418;2022-07-24T11:24:15;28.20;97.20
22337;DHT22;14992;50.844;4.418;2022-07-24T11:27:02;27.90;98.50
22337;DHT22;14992;50.844;4.418;2022-07-24T11:29:54;28.00;98.30
22337;DHT22;14992;50.844;4.418;2022-07-24T11:32:52;28.00;98.30
22337;DHT22;14992;50.844;4.418;2022-07-24T11:35:47;28.00;98.40
22337;DHT22;14992;50.844;4.418;2022-07-24T11:38:29;28.30;98.10
22337;DHT22;14992;50.844;4.418;2022-07-24T11:41:19;28.50;97.70
22337;DHT22;14992;50.844;4.418;2022-07-24T11:44:00;28.80;97.40
22337;DHT22;14992;50.844;4.418;2022-07-24T11:46:50;28.60;97.50
22337;DHT22;14992;50.844;4.418;2022-07-24T11:49:39;28.60;97.60
22337;DHT22;14992;50.844;4.418;2022-07-24T11:52:29;28.70;97.70
22337;DHT22;14992;50.844;4.418;2022-07-24T11:55:21;28.80;97.60
22337;DHT22;14992;50.844;4.418;2022-07-24T11:58:03;29.10;97.10
22337;DHT22;14992;50.844;4.418;2022-07-24T12:01:21;28.90;97.10
22337;DHT22;14992;50.844;4.418;2022-07-24T12:04:04;28.60;97.80
22337;DHT22;14992;50.844;4.418;2022-07-24T12:07:00;28.50;98.30
22337;DHT22;14992;50.844;4.418;2022-07-24T12:09:46;28.60;98.70
22337;DHT22;14992;50.844;4.418;2022-07-24T12:12:43;28.90;97.70
22337;DHT22;14992;50.844;4.418;2022-07-24T12:15:28;29.40;97.10
22337;DHT22;14992;50.844;4.418;2022-07-24T12:18:24;29.20;96.80
22337;DHT22;14992;50.844;4.418;2022-07-24T12:21:23;29.10;97.40
22337;DHT22;14992;50.844;4.418;2022-07-24T12:24:05;29.20;96.50
22337;DHT22;14992;50.844;4.418;2022-07-24T12:27:00;28.90;97.20
22337;DHT22;14992;50.844;4.418;2022-07-24T12:29:48;29.00;97.40
22337;DHT22;14992;50.844;4.418;2022-07-24T12:32:53;28.90;97.60
22337;DHT22;14992;50.844;4.418;2022-07-24T12:35:51;29.10;98.00
22337;DHT22;14992;50.844;4.418;2022-07-24T12:38:52;29.30;96.20
22337;DHT22;14992;50.844;4.418;2022-07-24T12:41:47;29.40;96.70
22337;DHT22;14992;50.844;4.418;2022-07-24T12:44:39;29.50;96.20
22337;DHT22;14992;50.844;4.418;2022-07-24T12:50:34;29.50;96.10
22337;DHT22;14992;50.844;4.418;2022-07-24T12:53:39;29.20;97.10
22337;DHT22;14992;50.844;4.418;2022-07-24T12:56:23;29.30;96.80
22337;DHT22;14992;50.844;4.418;2022-07-24T12:59:23;29.30;96.40
22337;DHT22;14992;50.844;4.418;2022-07-24T13:02:20;29.20;96.10
22337;DHT22;14992;50.844;4.418;2022-07-24T13:05:08;29.30;96.70
22337;DHT22;14992;50.844;4.418;2022-07-24T13:08:04;29.60;96.10
22337;DHT22;14992;50.844;4.418;2022-07-24T13:10:45;29.70;95.90
22337;DHT22;14992;50.844;4.418;2022-07-24T13:13:35;29.80;95.70
22337;DHT22;14992;50.844;4.418;2022-07-24T13:16:16;30.20;95.40
22337;DHT22;14992;50.844;4.418;2022-07-24T13:19:06;30.20;94.90
22337;DHT22;14992;50.844;4.418;2022-07-24T13:21:48;30.50;94.30
22337;DHT22;14992;50.844;4.418;2022-07-24T13:24:37;30.30;94.40
22337;DHT22;14992;50.844;4.418;2022-07-24T13:27:32;30.30;94.00
22337;DHT22;14992;50.844;4.418;2022-07-24T13:30:35;30.20;94.40
22337;DHT22;14992;50.844;4.418;2022-07-24T13:33:30;30.20;94.10
22337;DHT22;14992;50.844;4.418;2022-07-24T13:36:13;30.20;94.10
22337;DHT22;14992;50.844;4.418;2022-07-24T13:39:05;30.30;93.70
22337;DHT22;14992;50.844;4.418;2022-07-24T13:41:49;30.70;93.00
22337;DHT22;14992;50.844;4.418;2022-07-24T13:44:37;30.60;93.10
22337;DHT22;14992;50.844;4.418;2022-07-24T13:47:23;30.60;93.20
22337;DHT22;14992;50.844;4.418;2022-07-24T13:50:11;30.40;93.70
22337;DHT22;14992;50.844;4.418;2022-07-24T13:53:06;30.50;93.80
22337;DHT22;14992;50.844;4.418;2022-07-24T13:55:47;30.30;93.30
22337;DHT22;14992;50.844;4.418;2022-07-24T13:58:36;30.40;93.60
22337;DHT22;14992;50.844;4.418;2022-07-24T14:01:19;30.70;93.10
22337;DHT22;14992;50.844;4.418;2022-07-24T14:04:16;30.50;93.00
22337;DHT22;14992;50.844;4.418;2022-07-24T14:07:03;30.60;93.50
22337;DHT22;14992;50.844;4.418;2022-07-24T14:09:51;30.80;92.90
22337;DHT22;14992;50.844;4.418;2022-07-24T14:12:32;31.10;92.10
22337;DHT22;14992;50.844;4.418;2022-07-24T14:15:21;30.80;92.80
22337;DHT22;14992;50.844;4.418;2022-07-24T14:18:16;31.20;92.10
22337;DHT22;14992;50.844;4.418;2022-07-24T14:20:59;31.10;91.80
22337;DHT22;14992;50.844;4.418;2022-07-24T14:23:47;31.10;91.30
22337;DHT22;14992;50.844;4.418;2022-07-24T14:26:29;31.00;92.10
22337;DHT22;14992;50.844;4.418;2022-07-24T14:29:17;30.80;91.60
22337;DHT22;14992;50.844;4.418;2022-07-24T14:32:14;30.90;91.40
22337;DHT22;14992;50.844;4.418;2022-07-24T14:34:55;31.00;91.60
22337;DHT22;14992;50.844;4.418;2022-07-24T14:37:49;31.10;91.10
22337;DHT22;14992;50.844;4.418;2022-07-24T14:40:30;31.10;91.10
22337;DHT22;14992;50.844;4.418;2022-07-24T14:43:20;31.30;90.90
22337;DHT22;14992;50.844;4.418;2022-07-24T14:46:15;31.60;90.20
22337;DHT22;14992;50.844;4.418;2022-07-24T14:49:04;31.60;90.40
22337;DHT22;14992;50.844;4.418;2022-07-24T14:52:03;31.60;90.20
22337;DHT22;14992;50.844;4.418;2022-07-24T14:54:51;31.90;88.50
22337;DHT22;14992;50.844;4.418;2022-07-24T14:57:47;31.80;89.60
22337;DHT22;14992;50.844;4.418;2022-07-24T15:00:36;32.00;87.70
22337;DHT22;14992;50.844;4.418;2022-07-24T15:03:28;31.90;88.40
22337;DHT22;14992;50.844;4.418;2022-07-24T15:06:24;31.60;89.80
22337;DHT22;14992;50.844;4.418;2022-07-24T15:09:13;31.70;89.30
22337;DHT22;14992;50.844;4.418;2022-07-24T15:12:10;31.80;88.50
22337;DHT22;14992;50.844;4.418;2022-07-24T15:14:51;31.90;87.50
22337;DHT22;14992;50.844;4.418;2022-07-24T15:17:46;31.80;88.20
22337;DHT22;14992;50.844;4.418;2022-07-24T15:20:27;31.90;87.50
22337;DHT22;14992;50.844;4.418;2022-07-24T15:23:16;31.70;87.30
22337;DHT22;14992;50.844;4.418;2022-07-24T15:25:57;31.60;88.30
22337;DHT22;14992;50.844;4.418;2022-07-24T15:28:48;31.70;88.30
22337;DHT22;14992;50.844;4.418;2022-07-24T15:31:43;31.70;87.40
22337;DHT22;14992;50.844;4.418;2022-07-24T15:34:26;31.60;88.10
22337;DHT22;14992;50.844;4.418;2022-07-24T15:37:14;31.90;86.90
22337;DHT22;14992;50.844;4.418;2022-07-24T15:39:56;32.10;86.70
22337;DHT22;14992;50.844;4.418;2022-07-24T15:42:46;32.20;86.70
22337;DHT22;14992;50.844;4.418;2022-07-24T15:45:34;32.20;86.20
22337;DHT22;14992;50.844;4.418;2022-07-24T15:48:22;32.10;84.80
22337;DHT22;14992;50.844;4.418;2022-07-24T15:51:17;31.90;85.60
22337;DHT22;14992;50.844;4.418;2022-07-24T15:54:00;32.20;84.50
22337;DHT22;14992;50.844;4.418;2022-07-24T15:56:49;32.10;85.50
22337;DHT22;14992;50.844;4.418;2022-07-24T15:59:30;32.30;84.00
22337;DHT22;14992;50.844;4.418;2022-07-24T16:02:20;32.40;84.00
22337;DHT22;14992;50.844;4.418;2022-07-24T16:05:05;32.20;84.30
22337;DHT22;14992;50.844;4.418;2022-07-24T16:07:54;32.00;83.50
22337;DHT22;14992;50.844;4.418;2022-07-24T16:10:38;32.00;84.90
22337;DHT22;14992;50.844;4.418;2022-07-24T16:13:28;32.20;83.30
22337;DHT22;14992;50.844;4.418;2022-07-24T16:16:31;32.00;82.90
22337;DHT22;14992;50.844;4.418;2022-07-24T16:19:18;32.20;83.30
22337;DHT22;14992;50.844;4.418;2022-07-24T16:22:07;32.30;82.30
22337;DHT22;14992;50.844;4.418;2022-07-24T16:24:49;32.40;80.90
22337;DHT22;14992;50.844;4.418;2022-07-24T16:27:45;32.50;79.80
22337;DHT22;14992;50.844;4.418;2022-07-24T16:30:27;32.40;78.30
22337;DHT22;14992;50.844;4.418;2022-07-24T16:33:22;32.20;77.00
22337;DHT22;14992;50.844;4.418;2022-07-24T16:36:16;32.10;79.00
22337;DHT22;14992;50.844;4.418;2022-07-24T16:39:04;32.30;78.20
22337;DHT22;14992;50.844;4.418;2022-07-24T16:42:06;32.20;77.70
22337;DHT22;14992;50.844;4.418;2022-07-24T16:44:55;32.20;77.40
22337;DHT22;14992;50.844;4.418;2022-07-24T16:47:59;32.40;77.30
22337;DHT22;14992;50.844;4.418;2022-07-24T16:50:54;32.10;76.80
22337;DHT22;14992;50.844;4.418;2022-07-24T16:53:57;32.00;78.10
22337;DHT22;14992;50.844;4.418;2022-07-24T16:56:52;32.10;75.70
22337;DHT22;14992;50.844;4.418;2022-07-24T16:59:34;32.30;75.60
22337;DHT22;14992;50.844;4.418;2022-07-24T17:02:24;32.60;74.20
22337;DHT22;14992;50.844;4.418;2022-07-24T17:05:15;32.90;73.30
22337;DHT22;14992;50.844;4.418;2022-07-24T17:08:04;32.50;74.50
22337;DHT22;14992;50.844;4.418;2022-07-24T17:11:01;32.60;73.90
22337;DHT22;14992;50.844;4.418;2022-07-24T17:13:42;32.40;74.50
22337;DHT22;14992;50.844;4.418;2022-07-24T17:16:38;32.50;73.40
22337;DHT22;14992;50.844;4.418;2022-07-24T17:19:20;32.80;72.50
22337;DHT22;14992;50.844;4.418;2022-07-24T17:22:18;33.10;72.50
22337;DHT22;14992;50.844;4.418;2022-07-24T17:25:01;32.90;72.60
22337;DHT22;14992;50.844;4.418;2022-07-24T17:28:10;33.00;71.70
22337;DHT22;14992;50.844;4.418;2022-07-24T17:31:05;33.20;72.50
22337;DHT22;14992;50.844;4.418;2022-07-24T17:34:00;33.40;70.10